VCTRY47 KNTU-KNTU
Flight info
| Callsign | VCTRY47 |
|---|---|
| Flight time | 1h 31m |
| Altitude | 17000 |
| Route | CANOB KW36A HOBOH ZIBUT KW45A IMELL KW36A ZINEP ROWZO HUGEE HENIP WENID |
| Aircraft | F18/H-A/C |
Departure
| Time | 2026-04-29 18:49 |
|---|---|
| Airport | Oceana Naval Air Station (KNTU) |
Arrival
| Time | 2026-04-29 20:21 |
|---|---|
| Airport | Oceana Naval Air Station (KNTU) |
| Time | Latitude | Longitude | Altitude | Speed | Heading |
|---|---|---|---|---|---|
| 2026-04-29 18:30 | 36.81405 | -76.03463 | 30 ft | 0 kts | 45° |
| 2026-04-29 18:41 | 36.81409 | -76.03457 | 30 ft | 0 kts | 61° |
| 2026-04-29 18:41 | 36.81411 | -76.03446 | 30 ft | 0 kts | 84° |
| 2026-04-29 18:42 | 36.81412 | -76.03442 | 30 ft | 0 kts | 94° |
| 2026-04-29 18:44 | 36.81411 | -76.03439 | 30 ft | 3 kts | 98° |
| 2026-04-29 18:44 | 36.81408 | -76.03429 | 30 ft | 0 kts | 126° |
| 2026-04-29 18:45 | 36.81404 | -76.03423 | 30 ft | 0 kts | 140° |
| 2026-04-29 18:45 | 36.81383 | -76.03382 | 30 ft | 11 kts | 86° |
| 2026-04-29 18:45 | 36.81457 | -76.03331 | 30 ft | 7 kts | 325° |
| 2026-04-29 18:45 | 36.81482 | -76.03365 | 30 ft | 12 kts | 310° |
| 2026-04-29 18:46 | 36.81511 | -76.03407 | 30 ft | 11 kts | 309° |
| 2026-04-29 18:46 | 36.81588 | -76.03503 | 30 ft | 11 kts | 326° |
| 2026-04-29 18:46 | 36.81627 | -76.03553 | 30 ft | 7 kts | 309° |
| 2026-04-29 18:46 | 36.81653 | -76.03564 | 30 ft | 4 kts | 24° |
| 2026-04-29 18:47 | 36.81690 | -76.03528 | 30 ft | 15 kts | 42° |
| 2026-04-29 18:47 | 36.81783 | -76.03423 | 30 ft | 20 kts | 43° |
| 2026-04-29 18:47 | 36.81897 | -76.03296 | 30 ft | 24 kts | 43° |
| 2026-04-29 18:47 | 36.82034 | -76.03142 | 30 ft | 29 kts | 43° |
| 2026-04-29 18:48 | 36.82190 | -76.02969 | 30 ft | 31 kts | 38° |
| 2026-04-29 18:48 | 36.82321 | -76.02815 | 30 ft | 20 kts | 42° |
| 2026-04-29 18:48 | 36.82401 | -76.02726 | 30 ft | 12 kts | 42° |
| 2026-04-29 18:48 | 36.82517 | -76.02598 | 30 ft | 22 kts | 43° |
| 2026-04-29 18:49 | 36.82593 | -76.02591 | 30 ft | 11 kts | 310° |
| 2026-04-29 18:49 | 36.82616 | -76.02657 | 30 ft | 12 kts | 247° |
| 2026-04-29 18:49 | 36.82284 | -76.03030 | 30 ft | 151 kts | 222° |
| 2026-04-29 18:49 | 36.81349 | -76.04170 | 799 ft | 212 kts | 223° |
| 2026-04-29 18:50 | 36.79794 | -76.05435 | 1493 ft | 308 kts | 197° |
| 2026-04-29 18:50 | 36.77750 | -76.05690 | 2309 ft | 295 kts | 169° |
| 2026-04-29 18:50 | 36.75887 | -76.04693 | 3140 ft | 296 kts | 141° |
| 2026-04-29 18:50 | 36.74621 | -76.02658 | 3988 ft | 307 kts | 114° |
| 2026-04-29 18:51 | 36.74250 | -76.00063 | 4818 ft | 316 kts | 87° |
| 2026-04-29 18:51 | 36.74870 | -75.97430 | 5660 ft | 323 kts | 60° |
| 2026-04-29 18:51 | 36.76340 | -75.95279 | 6544 ft | 330 kts | 44° |
| 2026-04-29 18:51 | 36.78003 | -75.93289 | 7440 ft | 333 kts | 43° |
| 2026-04-29 18:52 | 36.79692 | -75.91264 | 8339 ft | 340 kts | 43° |
| 2026-04-29 18:52 | 36.81414 | -75.89198 | 9253 ft | 346 kts | 43° |
| 2026-04-29 18:52 | 36.83160 | -75.87100 | 10176 ft | 351 kts | 43° |
| 2026-04-29 18:52 | 36.84969 | -75.84865 | 11146 ft | 405 kts | 49° |
| 2026-04-29 18:53 | 36.86503 | -75.81689 | 12247 ft | 432 kts | 70° |
| 2026-04-29 18:53 | 36.87289 | -75.78020 | 13419 ft | 445 kts | 78° |
| 2026-04-29 18:53 | 36.87952 | -75.74188 | 14601 ft | 455 kts | 78° |
| 2026-04-29 18:53 | 36.88617 | -75.70298 | 15782 ft | 466 kts | 77° |
| 2026-04-29 18:54 | 36.89265 | -75.66264 | 16988 ft | 481 kts | 82° |
| 2026-04-29 18:54 | 36.89575 | -75.62080 | 18217 ft | 486 kts | 85° |
| 2026-04-29 18:54 | 36.89821 | -75.57761 | 18088 ft | 497 kts | 86° |
| 2026-04-29 18:54 | 36.90055 | -75.53478 | 18168 ft | 495 kts | 86° |
| 2026-04-29 18:55 | 36.90288 | -75.49186 | 18190 ft | 496 kts | 86° |
| 2026-04-29 18:55 | 36.90519 | -75.44893 | 17817 ft | 494 kts | 86° |
| 2026-04-29 18:55 | 36.90747 | -75.40636 | 17331 ft | 488 kts | 86° |
| 2026-04-29 18:55 | 36.90969 | -75.36433 | 16930 ft | 481 kts | 86° |
| 2026-04-29 18:56 | 36.91188 | -75.32236 | 16986 ft | 484 kts | 86° |
| 2026-04-29 18:56 | 36.91354 | -75.28043 | 16956 ft | 483 kts | 88° |
| 2026-04-29 18:56 | 36.91454 | -75.23844 | 16974 ft | 484 kts | 88° |
| 2026-04-29 18:56 | 36.91501 | -75.21766 | 16974 ft | 484 kts | 88° |
| 2026-04-29 18:57 | 36.91571 | -75.18588 | 16969 ft | 484 kts | 88° |
| 2026-04-29 18:57 | 36.91663 | -75.14386 | 16970 ft | 484 kts | 88° |
| 2026-04-29 18:57 | 36.91756 | -75.10187 | 16971 ft | 484 kts | 88° |
| 2026-04-29 18:57 | 36.91860 | -75.05987 | 16970 ft | 484 kts | 88° |
| 2026-04-29 18:58 | 36.92021 | -75.01787 | 16958 ft | 485 kts | 81° |
| 2026-04-29 18:58 | 36.93015 | -74.97619 | 16985 ft | 541 kts | 63° |
| 2026-04-29 18:58 | 36.95117 | -74.93500 | 16966 ft | 563 kts | 47° |
| 2026-04-29 18:58 | 36.97993 | -74.90241 | 16973 ft | 559 kts | 31° |
| 2026-04-29 18:59 | 37.01434 | -74.88049 | 16986 ft | 553 kts | 17° |
| 2026-04-29 18:59 | 37.05061 | -74.86444 | 16949 ft | 552 kts | 16° |
| 2026-04-29 18:59 | 37.08668 | -74.84814 | 16973 ft | 552 kts | 17° |
| 2026-04-29 18:59 | 37.12245 | -74.83047 | 16973 ft | 552 kts | 19° |
| 2026-04-29 19:00 | 37.15749 | -74.81092 | 16969 ft | 553 kts | 22° |
| 2026-04-29 19:00 | 37.19172 | -74.78854 | 16971 ft | 557 kts | 27° |
| 2026-04-29 19:00 | 37.22426 | -74.76191 | 16969 ft | 560 kts | 34° |
| 2026-04-29 19:00 | 37.25298 | -74.72869 | 16967 ft | 565 kts | 48° |
| 2026-04-29 19:01 | 37.27440 | -74.68727 | 16978 ft | 570 kts | 64° |
| 2026-04-29 19:01 | 37.28662 | -74.63990 | 16969 ft | 572 kts | 80° |
| 2026-04-29 19:01 | 37.28862 | -74.59005 | 16970 ft | 574 kts | 96° |
| 2026-04-29 19:01 | 37.28040 | -74.54129 | 16980 ft | 572 kts | 109° |
| 2026-04-29 19:02 | 37.26800 | -74.49377 | 16951 ft | 572 kts | 107° |
| 2026-04-29 19:02 | 37.26140 | -74.46177 | 16960 ft | 572 kts | 103° |
| 2026-04-29 19:02 | 37.25128 | -74.39613 | 16972 ft | 573 kts | 100° |
| 2026-04-29 19:02 | 37.24687 | -74.36345 | 16966 ft | 573 kts | 100° |
| 2026-04-29 19:03 | 37.23810 | -74.29811 | 16971 ft | 573 kts | 100° |
| 2026-04-29 19:03 | 37.23140 | -74.24888 | 16688 ft | 572 kts | 100° |
| 2026-04-29 19:03 | 37.22476 | -74.20032 | 15708 ft | 558 kts | 100° |
| 2026-04-29 19:03 | 37.22035 | -74.16810 | 15049 ft | 551 kts | 100° |
| 2026-04-29 19:04 | 37.21391 | -74.12114 | 14075 ft | 542 kts | 100° |
| 2026-04-29 19:04 | 37.20758 | -74.07503 | 13108 ft | 531 kts | 100° |
| 2026-04-29 19:04 | 37.20136 | -74.02981 | 12152 ft | 521 kts | 100° |
| 2026-04-29 19:04 | 37.19523 | -73.98534 | 11206 ft | 514 kts | 100° |
| 2026-04-29 19:05 | 37.18920 | -73.94156 | 10271 ft | 505 kts | 99° |
| 2026-04-29 19:05 | 37.18326 | -73.89857 | 9352 ft | 499 kts | 99° |
| 2026-04-29 19:05 | 37.17884 | -73.86657 | 8666 ft | 492 kts | 99° |
| 2026-04-29 19:15 | 37.17743 | -73.85643 | 8448 ft | 492 kts | 99° |
| 2026-04-29 19:15 | 37.17165 | -73.81464 | 7551 ft | 484 kts | 99° |
| 2026-04-29 19:15 | 37.16679 | -73.77957 | 6797 ft | 477 kts | 99° |
| 2026-04-29 19:16 | 37.16130 | -73.74005 | 5946 ft | 471 kts | 99° |
| 2026-04-29 19:17 | 37.15571 | -73.69986 | 5079 ft | 460 kts | 99° |
| 2026-04-29 19:17 | 37.15110 | -73.66684 | 4351 ft | 323 kts | 99° |
| 2026-04-29 19:17 | 37.14741 | -73.64062 | 3805 ft | 303 kts | 99° |
| 2026-04-29 19:17 | 37.14371 | -73.61466 | 3888 ft | 305 kts | 99° |
| 2026-04-29 19:18 | 37.14003 | -73.58904 | 3862 ft | 301 kts | 99° |
| 2026-04-29 19:18 | 37.13754 | -73.57178 | 3846 ft | 304 kts | 99° |
| 2026-04-29 19:18 | 37.13257 | -73.53743 | 3863 ft | 301 kts | 99° |
| 2026-04-29 19:18 | 37.12879 | -73.51144 | 3865 ft | 304 kts | 99° |
| 2026-04-29 19:19 | 37.12502 | -73.48550 | 3857 ft | 303 kts | 99° |
| 2026-04-29 19:19 | 37.12124 | -73.45948 | 3703 ft | 307 kts | 99° |
| 2026-04-29 19:19 | 37.11742 | -73.43320 | 2745 ft | 306 kts | 99° |
| 2026-04-29 19:19 | 37.11357 | -73.40677 | 1702 ft | 308 kts | 99° |
| 2026-04-29 19:20 | 37.10939 | -73.38072 | 909 ft | 300 kts | 105° |
| 2026-04-29 19:20 | 37.10232 | -73.35697 | 734 ft | 271 kts | 111° |
| 2026-04-29 19:20 | 37.09601 | -73.33858 | 664 ft | 196 kts | 113° |
| 2026-04-29 19:20 | 37.09083 | -73.32473 | 594 ft | 174 kts | 114° |
| 2026-04-29 19:21 | 37.09036 | -73.30960 | 829 ft | 190 kts | 58° |
| 2026-04-29 19:21 | 37.10419 | -73.29923 | 917 ft | 270 kts | 5° |
| 2026-04-29 19:21 | 37.11704 | -73.30892 | 1760 ft | 197 kts | 301° |
| 2026-04-29 19:21 | 37.12305 | -73.32386 | 1948 ft | 177 kts | 294° |
| 2026-04-29 19:22 | 37.12661 | -73.33761 | 2053 ft | 157 kts | 276° |
| 2026-04-29 19:22 | 37.12258 | -73.34860 | 1501 ft | 149 kts | 205° |
| 2026-04-29 19:22 | 37.11253 | -73.34997 | 1111 ft | 145 kts | 171° |
| 2026-04-29 19:22 | 37.10305 | -73.34609 | 798 ft | 143 kts | 142° |
| 2026-04-29 19:23 | 37.09793 | -73.33589 | 598 ft | 141 kts | 99° |
| 2026-04-29 19:23 | 37.09607 | -73.32401 | 387 ft | 138 kts | 101° |
| 2026-04-29 19:23 | 37.09393 | -73.31231 | 199 ft | 137 kts | 102° |
| 2026-04-29 19:23 | 37.09161 | -73.30087 | 73 ft | 88 kts | 105° |
| 2026-04-29 19:24 | 37.09075 | -73.29787 | 73 ft | 37 kts | 105° |
| 2026-04-29 19:24 | 37.08988 | -73.29495 | 73 ft | 37 kts | 154° |
| 2026-04-29 19:24 | 37.08906 | -73.29193 | 73 ft | 30 kts | 321° |
| 2026-04-29 19:24 | 37.08833 | -73.28992 | 73 ft | 27 kts | 302° |
| 2026-04-29 19:25 | 37.08761 | -73.28704 | 73 ft | 35 kts | 63° |
| 2026-04-29 19:25 | 37.08679 | -73.28408 | 73 ft | 40 kts | 98° |
| 2026-04-29 19:25 | 37.08588 | -73.28087 | 73 ft | 115 kts | 105° |
| 2026-04-29 19:25 | 37.08113 | -73.25994 | 1067 ft | 277 kts | 98° |
| 2026-04-29 19:26 | 37.08889 | -73.24516 | 2278 ft | 189 kts | 333° |
| 2026-04-29 19:26 | 37.09819 | -73.25733 | 2075 ft | 236 kts | 309° |
| 2026-04-29 19:26 | 37.10825 | -73.27339 | 1681 ft | 219 kts | 295° |
| 2026-04-29 19:26 | 37.10617 | -73.28879 | 1267 ft | 163 kts | 232° |
| 2026-04-29 19:27 | 37.09749 | -73.29565 | 818 ft | 144 kts | 191° |
| 2026-04-29 19:27 | 37.08775 | -73.29438 | 620 ft | 143 kts | 143° |
| 2026-04-29 19:27 | 37.08345 | -73.28383 | 476 ft | 139 kts | 101° |
| 2026-04-29 19:27 | 37.08124 | -73.27219 | 333 ft | 137 kts | 102° |
| 2026-04-29 19:28 | 37.07889 | -73.26063 | 201 ft | 137 kts | 102° |
| 2026-04-29 19:28 | 37.07664 | -73.24926 | 73 ft | 80 kts | 102° |
| 2026-04-29 19:28 | 37.07575 | -73.24622 | 73 ft | 39 kts | 151° |
| 2026-04-29 19:28 | 37.07494 | -73.24375 | 73 ft | 20 kts | 288° |
| 2026-04-29 19:29 | 37.07423 | -73.24170 | 73 ft | 31 kts | 323° |
| 2026-04-29 19:29 | 37.07352 | -73.23845 | 73 ft | 38 kts | 110° |
| 2026-04-29 19:29 | 37.07262 | -73.23535 | 73 ft | 35 kts | 105° |
| 2026-04-29 19:29 | 37.06965 | -73.22266 | 603 ft | 256 kts | 105° |
| 2026-04-29 19:30 | 37.06554 | -73.20026 | 1652 ft | 241 kts | 82° |
| 2026-04-29 19:30 | 37.07563 | -73.19105 | 2469 ft | 201 kts | 340° |
| 2026-04-29 19:30 | 37.08626 | -73.20406 | 1857 ft | 217 kts | 304° |
| 2026-04-29 19:30 | 37.09198 | -73.21844 | 1739 ft | 155 kts | 294° |
| 2026-04-29 19:31 | 37.09340 | -73.23045 | 1562 ft | 143 kts | 251° |
| 2026-04-29 19:31 | 37.08736 | -73.24036 | 1260 ft | 145 kts | 213° |
| 2026-04-29 19:31 | 37.07774 | -73.24391 | 1019 ft | 146 kts | 178° |
| 2026-04-29 19:31 | 37.06943 | -73.23811 | 672 ft | 144 kts | 111° |
| 2026-04-29 19:32 | 37.06727 | -73.22629 | 438 ft | 140 kts | 101° |
| 2026-04-29 19:32 | 37.06517 | -73.21458 | 251 ft | 138 kts | 101° |
| 2026-04-29 19:32 | 37.06288 | -73.20304 | 95 ft | 137 kts | 101° |
| 2026-04-29 19:32 | 37.06164 | -73.19766 | 73 ft | 36 kts | 101° |
| 2026-04-29 19:33 | 37.06080 | -73.19431 | 73 ft | 37 kts | 139° |
| 2026-04-29 19:33 | 37.06000 | -73.19207 | 73 ft | 26 kts | 287° |
| 2026-04-29 19:33 | 37.05920 | -73.18998 | 73 ft | 32 kts | 294° |
| 2026-04-29 19:33 | 37.05852 | -73.18691 | 73 ft | 39 kts | 104° |
| 2026-04-29 19:34 | 37.05763 | -73.18381 | 73 ft | 35 kts | 105° |
| 2026-04-29 19:34 | 37.05320 | -73.16424 | 903 ft | 269 kts | 104° |
| 2026-04-29 19:34 | 37.05607 | -73.14490 | 1754 ft | 208 kts | 12° |
| 2026-04-29 19:34 | 37.06673 | -73.15337 | 1507 ft | 207 kts | 302° |
| 2026-04-29 19:35 | 37.07138 | -73.16286 | 1329 ft | 177 kts | 303° |
| 2026-04-29 19:35 | 37.07522 | -73.17933 | 1109 ft | 141 kts | 277° |
| 2026-04-29 19:35 | 37.07042 | -73.18947 | 791 ft | 145 kts | 214° |
| 2026-04-29 19:35 | 37.06109 | -73.19255 | 523 ft | 141 kts | 164° |
| 2026-04-29 19:36 | 37.05407 | -73.18482 | 411 ft | 140 kts | 101° |
| 2026-04-29 19:36 | 37.05232 | -73.17299 | 318 ft | 136 kts | 98° |
| 2026-04-29 19:36 | 37.05028 | -73.16159 | 168 ft | 136 kts | 101° |
| 2026-04-29 19:36 | 37.04831 | -73.15193 | 73 ft | 35 kts | 103° |
| 2026-04-29 19:37 | 37.04752 | -73.14873 | 73 ft | 45 kts | 75° |
| 2026-04-29 19:37 | 37.04683 | -73.14666 | 73 ft | 29 kts | 267° |
| 2026-04-29 19:37 | 37.04590 | -73.14424 | 73 ft | 29 kts | 332° |
| 2026-04-29 19:37 | 37.04519 | -73.14111 | 73 ft | 41 kts | 105° |
| 2026-04-29 19:38 | 37.04365 | -73.13496 | 118 ft | 254 kts | 105° |
| 2026-04-29 19:38 | 37.04420 | -73.11540 | 1460 ft | 223 kts | 34° |
| 2026-04-29 19:38 | 37.05557 | -73.12136 | 1853 ft | 221 kts | 288° |
| 2026-04-29 19:38 | 37.06002 | -73.14025 | 990 ft | 235 kts | 287° |
| 2026-04-29 19:39 | 37.06016 | -73.15667 | 1181 ft | 151 kts | 216° |
| 2026-04-29 19:39 | 37.05051 | -73.15791 | 910 ft | 146 kts | 158° |
| 2026-04-29 19:39 | 37.04401 | -73.14925 | 578 ft | 139 kts | 102° |
| 2026-04-29 19:39 | 37.04184 | -73.13764 | 410 ft | 136 kts | 101° |
| 2026-04-29 19:40 | 37.03949 | -73.12619 | 242 ft | 136 kts | 103° |
| 2026-04-29 19:40 | 37.03713 | -73.11478 | 104 ft | 136 kts | 101° |
| 2026-04-29 19:40 | 37.03581 | -73.10891 | 73 ft | 35 kts | 102° |
| 2026-04-29 19:40 | 37.03483 | -73.10569 | 73 ft | 27 kts | 274° |
| 2026-04-29 19:41 | 37.03421 | -73.10384 | 73 ft | 25 kts | 276° |
| 2026-04-29 19:41 | 37.03352 | -73.10101 | 73 ft | 41 kts | 99° |
| 2026-04-29 19:41 | 37.03213 | -73.09555 | 95 ft | 254 kts | 105° |
| 2026-04-29 19:41 | 37.03530 | -73.07644 | 1387 ft | 254 kts | 17° |
| 2026-04-29 19:42 | 37.04693 | -73.08796 | 1754 ft | 244 kts | 296° |
| 2026-04-29 19:42 | 37.04921 | -73.09405 | 1728 ft | 231 kts | 296° |
| 2026-04-29 19:42 | 37.04295 | -73.11608 | 1129 ft | 148 kts | 191° |
| 2026-04-29 19:42 | 37.03367 | -73.11263 | 637 ft | 146 kts | 123° |
| 2026-04-29 19:43 | 37.03083 | -73.10112 | 341 ft | 136 kts | 101° |
| 2026-04-29 19:43 | 37.02877 | -73.08974 | 231 ft | 135 kts | 102° |
| 2026-04-29 19:43 | 37.02642 | -73.07818 | 107 ft | 135 kts | 102° |
| 2026-04-29 19:43 | 37.02498 | -73.07185 | 73 ft | 35 kts | 104° |
| 2026-04-29 19:44 | 37.02414 | -73.06857 | 73 ft | 40 kts | 138° |
| 2026-04-29 19:44 | 37.02322 | -73.06591 | 73 ft | 35 kts | 282° |
| 2026-04-29 19:44 | 37.02239 | -73.06305 | 73 ft | 35 kts | 282° |
| 2026-04-29 19:44 | 37.02156 | -73.06019 | 73 ft | 35 kts | 282° |
| 2026-04-29 19:45 | 37.02072 | -73.05733 | 73 ft | 35 kts | 282° |
| 2026-04-29 19:45 | 37.01989 | -73.05447 | 73 ft | 35 kts | 282° |
| 2026-04-29 19:45 | 37.01906 | -73.05160 | 73 ft | 35 kts | 282° |
| 2026-04-29 19:45 | 37.01823 | -73.04874 | 73 ft | 35 kts | 282° |
| 2026-04-29 19:46 | 37.01739 | -73.04588 | 73 ft | 35 kts | 282° |
| 2026-04-29 19:46 | 37.01656 | -73.04302 | 73 ft | 35 kts | 282° |
| 2026-04-29 19:46 | 37.01573 | -73.04016 | 73 ft | 35 kts | 282° |
| 2026-04-29 19:46 | 37.01489 | -73.03730 | 73 ft | 35 kts | 282° |
| 2026-04-29 19:47 | 37.01406 | -73.03444 | 73 ft | 35 kts | 282° |
| 2026-04-29 19:47 | 37.01323 | -73.03158 | 73 ft | 35 kts | 282° |
| 2026-04-29 19:47 | 37.01240 | -73.02872 | 73 ft | 35 kts | 282° |
| 2026-04-29 19:47 | 37.01156 | -73.02586 | 73 ft | 35 kts | 282° |
| 2026-04-29 19:48 | 37.01073 | -73.02300 | 73 ft | 35 kts | 282° |
| 2026-04-29 19:48 | 37.01018 | -73.02110 | 73 ft | 35 kts | 282° |
| 2026-04-29 19:48 | 37.00907 | -73.01728 | 73 ft | 35 kts | 282° |
| 2026-04-29 19:48 | 37.00823 | -73.01442 | 73 ft | 35 kts | 282° |
| 2026-04-29 19:49 | 37.00740 | -73.01155 | 73 ft | 35 kts | 282° |
| 2026-04-29 19:49 | 37.00657 | -73.00869 | 73 ft | 35 kts | 282° |
| 2026-04-29 19:49 | 37.00573 | -73.00583 | 73 ft | 35 kts | 282° |
| 2026-04-29 19:49 | 37.00490 | -73.00297 | 73 ft | 35 kts | 282° |
| 2026-04-29 19:50 | 37.00410 | -73.00030 | 73 ft | 26 kts | 287° |
| 2026-04-29 19:50 | 37.00340 | -72.99788 | 73 ft | 35 kts | 284° |
| 2026-04-29 19:50 | 37.00257 | -72.99502 | 73 ft | 35 kts | 284° |
| 2026-04-29 19:50 | 37.00200 | -72.99350 | 73 ft | 28 kts | 277° |
| 2026-04-29 19:51 | 37.00128 | -72.99067 | 73 ft | 37 kts | 37° |
| 2026-04-29 19:51 | 37.00048 | -72.98749 | 73 ft | 38 kts | 107° |
| 2026-04-29 19:51 | 36.99937 | -72.98364 | 73 ft | 35 kts | 107° |
| 2026-04-29 19:51 | 36.99881 | -72.98171 | 73 ft | 35 kts | 107° |
| 2026-04-29 19:52 | 36.99797 | -72.97885 | 73 ft | 35 kts | 107° |
| 2026-04-29 19:52 | 36.99714 | -72.97599 | 73 ft | 35 kts | 107° |
| 2026-04-29 19:52 | 36.99631 | -72.97313 | 73 ft | 35 kts | 107° |
| 2026-04-29 19:52 | 36.99546 | -72.97020 | 73 ft | 70 kts | 105° |
| 2026-04-29 19:53 | 36.99108 | -72.95066 | 1178 ft | 252 kts | 96° |
| 2026-04-29 19:53 | 36.99930 | -72.94169 | 1904 ft | 165 kts | 313° |
| 2026-04-29 19:53 | 37.00518 | -72.95559 | 1719 ft | 199 kts | 295° |
| 2026-04-29 19:53 | 37.01022 | -72.97066 | 1476 ft | 163 kts | 290° |
| 2026-04-29 19:54 | 36.99753 | -72.98131 | 695 ft | 146 kts | 147° |
| 2026-04-29 19:54 | 36.99284 | -72.97116 | 457 ft | 137 kts | 99° |
| 2026-04-29 19:54 | 36.99078 | -72.95965 | 279 ft | 137 kts | 101° |
| 2026-04-29 19:55 | 36.98847 | -72.94818 | 112 ft | 136 kts | 101° |
| 2026-04-29 19:55 | 36.98714 | -72.94208 | 73 ft | 3 kts | 107° |
| 2026-04-29 19:55 | 36.98702 | -72.94181 | 0 ft | 250 kts | 0° |
| 2026-04-29 19:55 | 36.80017 | -72.90969 | 17773 ft | 328 kts | 111° |
| 2026-04-29 19:56 | 36.78987 | -72.88016 | 16139 ft | 399 kts | 114° |
| 2026-04-29 19:56 | 36.77185 | -72.85233 | 15007 ft | 429 kts | 146° |
| 2026-04-29 19:56 | 36.74571 | -72.83594 | 15431 ft | 416 kts | 166° |
| 2026-04-29 19:56 | 36.71732 | -72.83122 | 15440 ft | 405 kts | 187° |
| 2026-04-29 19:57 | 36.69061 | -72.83918 | 15366 ft | 393 kts | 209° |
| 2026-04-29 19:57 | 36.66894 | -72.85889 | 15391 ft | 384 kts | 232° |
| 2026-04-29 19:57 | 36.65543 | -72.88699 | 15399 ft | 378 kts | 253° |
| 2026-04-29 19:57 | 36.65196 | -72.91908 | 15392 ft | 375 kts | 273° |
| 2026-04-29 19:58 | 36.65388 | -72.95172 | 15381 ft | 392 kts | 275° |
| 2026-04-29 19:58 | 36.65630 | -72.98835 | 15380 ft | 430 kts | 275° |
| 2026-04-29 19:58 | 36.65873 | -73.02533 | 15395 ft | 429 kts | 275° |
| 2026-04-29 19:58 | 36.66115 | -73.06237 | 15390 ft | 429 kts | 275° |
| 2026-04-29 19:59 | 36.66357 | -73.09947 | 15389 ft | 429 kts | 275° |
| 2026-04-29 19:59 | 36.66597 | -73.13649 | 15391 ft | 429 kts | 275° |
| 2026-04-29 19:59 | 36.66836 | -73.17352 | 15390 ft | 429 kts | 275° |
| 2026-04-29 19:59 | 36.67074 | -73.21060 | 15390 ft | 429 kts | 274° |
| 2026-04-29 20:00 | 36.67311 | -73.24763 | 15390 ft | 429 kts | 274° |
| 2026-04-29 20:00 | 36.67547 | -73.28463 | 15391 ft | 429 kts | 274° |
| 2026-04-29 20:00 | 36.67781 | -73.32161 | 15390 ft | 428 kts | 274° |
| 2026-04-29 20:00 | 36.68014 | -73.35866 | 15390 ft | 429 kts | 274° |
| 2026-04-29 20:01 | 36.68247 | -73.39571 | 15390 ft | 429 kts | 274° |
| 2026-04-29 20:01 | 36.68478 | -73.43276 | 15390 ft | 429 kts | 274° |
| 2026-04-29 20:01 | 36.68709 | -73.46985 | 15390 ft | 429 kts | 274° |
| 2026-04-29 20:01 | 36.68938 | -73.50690 | 15390 ft | 429 kts | 274° |
| 2026-04-29 20:02 | 36.69163 | -73.54351 | 15390 ft | 429 kts | 274° |
| 2026-04-29 20:02 | 36.69390 | -73.58054 | 15390 ft | 429 kts | 274° |
| 2026-04-29 20:02 | 36.69616 | -73.61761 | 15390 ft | 429 kts | 274° |
| 2026-04-29 20:02 | 36.69768 | -73.64264 | 15390 ft | 429 kts | 274° |
| 2026-04-29 20:03 | 36.70064 | -73.69176 | 15390 ft | 429 kts | 274° |
| 2026-04-29 20:03 | 36.70287 | -73.72888 | 15390 ft | 429 kts | 274° |
| 2026-04-29 20:03 | 36.70508 | -73.76592 | 15390 ft | 429 kts | 274° |
| 2026-04-29 20:03 | 36.70728 | -73.80292 | 15391 ft | 429 kts | 274° |
| 2026-04-29 20:04 | 36.70947 | -73.84003 | 15390 ft | 429 kts | 274° |
| 2026-04-29 20:04 | 36.71165 | -73.87718 | 15390 ft | 429 kts | 274° |
| 2026-04-29 20:04 | 36.71381 | -73.91412 | 15390 ft | 429 kts | 274° |
| 2026-04-29 20:04 | 36.71597 | -73.95129 | 15390 ft | 429 kts | 274° |
| 2026-04-29 20:05 | 36.71811 | -73.98845 | 15390 ft | 429 kts | 274° |
| 2026-04-29 20:05 | 36.72024 | -74.02542 | 15389 ft | 427 kts | 274° |
| 2026-04-29 20:05 | 36.72235 | -74.06237 | 15390 ft | 427 kts | 274° |
| 2026-04-29 20:05 | 36.72445 | -74.09924 | 15390 ft | 427 kts | 274° |
| 2026-04-29 20:06 | 36.72654 | -74.13614 | 15390 ft | 427 kts | 274° |
| 2026-04-29 20:06 | 36.72863 | -74.17312 | 15390 ft | 427 kts | 274° |
| 2026-04-29 20:06 | 36.73070 | -74.21012 | 15390 ft | 427 kts | 273° |
| 2026-04-29 20:06 | 36.73275 | -74.24698 | 15390 ft | 427 kts | 273° |
| 2026-04-29 20:07 | 36.73480 | -74.28399 | 15390 ft | 427 kts | 273° |
| 2026-04-29 20:07 | 36.73682 | -74.32081 | 15391 ft | 427 kts | 273° |
| 2026-04-29 20:07 | 36.73884 | -74.35775 | 15390 ft | 428 kts | 273° |
| 2026-04-29 20:07 | 36.74086 | -74.39480 | 15390 ft | 427 kts | 273° |
| 2026-04-29 20:08 | 36.74286 | -74.43173 | 15390 ft | 427 kts | 273° |
| 2026-04-29 20:08 | 36.74417 | -74.45620 | 15390 ft | 427 kts | 273° |
| 2026-04-29 20:08 | 36.74682 | -74.50572 | 15390 ft | 427 kts | 273° |
| 2026-04-29 20:08 | 36.74878 | -74.54268 | 15390 ft | 427 kts | 273° |
| 2026-04-29 20:09 | 36.75070 | -74.57908 | 15390 ft | 427 kts | 273° |
| 2026-04-29 20:09 | 36.75264 | -74.61614 | 15390 ft | 428 kts | 273° |
| 2026-04-29 20:09 | 36.75457 | -74.65313 | 15390 ft | 428 kts | 273° |
| 2026-04-29 20:09 | 36.75649 | -74.69013 | 15390 ft | 428 kts | 273° |
| 2026-04-29 20:10 | 36.75839 | -74.72708 | 15390 ft | 428 kts | 273° |
| 2026-04-29 20:10 | 36.76031 | -74.76461 | 15390 ft | 428 kts | 273° |
| 2026-04-29 20:10 | 36.76219 | -74.80162 | 15390 ft | 427 kts | 273° |
| 2026-04-29 20:10 | 36.76406 | -74.83860 | 15390 ft | 428 kts | 273° |
| 2026-04-29 20:11 | 36.76591 | -74.87556 | 15390 ft | 428 kts | 273° |
| 2026-04-29 20:11 | 36.76773 | -74.91205 | 15390 ft | 428 kts | 273° |
| 2026-04-29 20:11 | 36.76956 | -74.94912 | 15390 ft | 429 kts | 273° |
| 2026-04-29 20:11 | 36.77138 | -74.98619 | 15390 ft | 428 kts | 273° |
| 2026-04-29 20:12 | 36.77319 | -75.02328 | 15390 ft | 429 kts | 273° |
| 2026-04-29 20:12 | 36.77499 | -75.06041 | 15390 ft | 429 kts | 273° |
| 2026-04-29 20:12 | 36.77677 | -75.09751 | 15390 ft | 429 kts | 273° |
| 2026-04-29 20:12 | 36.77855 | -75.13462 | 15390 ft | 429 kts | 273° |
| 2026-04-29 20:13 | 36.78031 | -75.17178 | 15390 ft | 429 kts | 273° |
| 2026-04-29 20:13 | 36.78206 | -75.20881 | 15390 ft | 429 kts | 273° |
| 2026-04-29 20:13 | 36.78380 | -75.24600 | 15390 ft | 429 kts | 272° |
| 2026-04-29 20:13 | 36.78552 | -75.28312 | 15390 ft | 429 kts | 272° |
| 2026-04-29 20:14 | 36.78723 | -75.32021 | 15390 ft | 429 kts | 272° |
| 2026-04-29 20:14 | 36.78893 | -75.35729 | 15390 ft | 429 kts | 272° |
| 2026-04-29 20:14 | 36.79061 | -75.39436 | 15390 ft | 429 kts | 272° |
| 2026-04-29 20:14 | 36.79229 | -75.43158 | 15390 ft | 429 kts | 272° |
| 2026-04-29 20:15 | 36.79395 | -75.46870 | 15390 ft | 429 kts | 272° |
| 2026-04-29 20:15 | 36.79621 | -75.50580 | 15383 ft | 429 kts | 279° |
| 2026-04-29 20:15 | 36.80315 | -75.54204 | 15364 ft | 431 kts | 283° |
| 2026-04-29 20:15 | 36.81079 | -75.57820 | 14649 ft | 429 kts | 283° |
| 2026-04-29 20:16 | 36.81838 | -75.61402 | 13946 ft | 427 kts | 283° |
| 2026-04-29 20:16 | 36.82595 | -75.64988 | 13238 ft | 426 kts | 283° |
| 2026-04-29 20:16 | 36.83345 | -75.68550 | 12538 ft | 423 kts | 283° |
| 2026-04-29 20:16 | 36.84094 | -75.72115 | 11503 ft | 425 kts | 283° |
| 2026-04-29 20:17 | 36.84828 | -75.75613 | 10127 ft | 385 kts | 284° |
| 2026-04-29 20:17 | 36.85448 | -75.78567 | 8949 ft | 340 kts | 284° |
| 2026-04-29 20:17 | 36.86002 | -75.81212 | 7427 ft | 294 kts | 284° |
| 2026-04-29 20:17 | 36.86496 | -75.83567 | 5844 ft | 268 kts | 283° |
| 2026-04-29 20:18 | 36.86963 | -75.85781 | 4627 ft | 264 kts | 283° |
| 2026-04-29 20:18 | 36.87421 | -75.87936 | 3869 ft | 253 kts | 283° |
| 2026-04-29 20:18 | 36.87787 | -75.89645 | 3342 ft | 253 kts | 283° |
| 2026-04-29 20:18 | 36.88231 | -75.91710 | 3010 ft | 230 kts | 283° |
| 2026-04-29 20:19 | 36.88596 | -75.93469 | 3054 ft | 193 kts | 275° |
| 2026-04-29 20:19 | 36.88501 | -75.95085 | 2671 ft | 194 kts | 252° |
| 2026-04-29 20:19 | 36.87942 | -75.96647 | 2191 ft | 201 kts | 231° |
| 2026-04-29 20:19 | 36.86946 | -75.97839 | 1704 ft | 200 kts | 217° |
| 2026-04-29 20:20 | 36.85998 | -75.98889 | 1272 ft | 173 kts | 218° |
| 2026-04-29 20:20 | 36.85193 | -75.99830 | 840 ft | 145 kts | 217° |
| 2026-04-29 20:20 | 36.84436 | -76.00665 | 541 ft | 146 kts | 215° |
| 2026-04-29 20:20 | 36.83682 | -76.01472 | 276 ft | 145 kts | 214° |
| 2026-04-29 20:21 | 36.82961 | -76.02295 | 32 ft | 122 kts | 217° |
| 2026-04-29 20:21 | 36.82580 | -76.02713 | 30 ft | 35 kts | 214° |
| 2026-04-29 20:21 | 36.82500 | -76.02787 | 30 ft | 7 kts | 222° |
| 2026-04-29 20:21 | 36.82457 | -76.02842 | 30 ft | 7 kts | 223° |
| 2026-04-29 20:22 | 36.82400 | -76.02856 | 30 ft | 6 kts | 144° |
| 2026-04-29 20:22 | 36.82386 | -76.02839 | 30 ft | 5 kts | 135° |
| 2026-04-29 20:22 | 36.82356 | -76.02805 | 30 ft | 7 kts | 164° |
| 2026-04-29 20:22 | 36.82291 | -76.02854 | 30 ft | 13 kts | 223° |
| 2026-04-29 20:23 | 36.82226 | -76.02930 | 30 ft | 17 kts | 222° |
| 2026-04-29 20:23 | 36.82116 | -76.03051 | 30 ft | 20 kts | 223° |
| 2026-04-29 20:23 | 36.82040 | -76.03136 | 30 ft | 11 kts | 221° |
| 2026-04-29 20:23 | 36.81988 | -76.03193 | 30 ft | 9 kts | 223° |
| 2026-04-29 20:24 | 36.81964 | -76.03221 | 30 ft | 0 kts | 223° |
| 2026-04-29 20:25 | 36.81939 | -76.03218 | 30 ft | 10 kts | 152° |
| 2026-04-29 20:25 | 36.81908 | -76.03196 | 30 ft | 0 kts | 149° |
| 2026-04-29 20:25 | 36.81897 | -76.03186 | 30 ft | 12 kts | 147° |
| 2026-04-29 20:26 | 36.81839 | -76.03175 | 30 ft | 8 kts | 221° |
| 2026-04-29 20:26 | 36.81834 | -76.03180 | 30 ft | 0 kts | 222° |